Airfield :
LOGIN :

Register | Disclaimer

   EN    FR    IT 

 










Legend :    VFR   Marginal VFR   IFR   Intensive IFR   Very Intensive IFR
Visi :
Ceiling :
>= 8 km
>= 3000ft
5 to 8 km
1000 to 3000 ft
1500m to 5 km
500 to 1000 ft
800 to 1500m
200 to 500 ft
< 800m
< 200 ft
Symbols :   Thunderstorms  Fog  Heavy snow  Heavy precipitations  Wind > 20 kt
SIGMETs :     Misc.  Thunderstorms  Icing  Turbulence  Mountain Waves  Volcanic Ashes







- Airport Elevation : 1260 ft
- IATA code : LDE
- Download approach charts


LFBT - Tarbes / Ossun

CURRENT METAR :
  • 260900Z AUTO 20004KT 160V220 9999 FEW005 OVC022 10/09 Q1024 NOSIG

EXPIRED METARs :
  • 260830Z AUTO 14004KT 100V170 8000 OVC009 10/09 Q1024 BECMG BKN020
  • 260800Z AUTO 20005KT 9999 BKN012 OVC022 10/08 Q1024 BECMG BKN020
  • 260730Z AUTO 20004KT 9999 BKN011 OVC019 10/08 Q1024 BECMG BKN020
  • 260700Z AUTO 18004KT 150V210 9999 FEW014 BKN023 OVC029 10/08 Q1024 TEMPO BKN014
  • 260630Z AUTO 17003KT 9999 FEW014 BKN027 OVC034 09/08 Q1024 TEMPO BKN014

TAF AMD TAF LFBT
Valid from the 26 at 09:00 until the 27 at 06:00 UTC


260906Z 2609/2706 03008KT 9999 OVC020
PROB30
TEMPO 2609/2610 7000 BKN009
BECMG 2613/2615 SCT040
BECMG 2615/2617 CAVOK
No reported NOTAMs for that airfield.



MET'MAP, your aeronautical weather chart ! - Copyright ORBIFLY December 2007 - Disclaimer

ORBIFLY MET'MAP TEAM :

Programming & Development : Alexandra Zaïnal
Concept & Development : Baudouin d'Aumeries
Co-Development & Prog : Marc-Olivier Méhu
Technical & hardware support : Manuel Goepfert

Contact : metmap@orbifly.com




SOURCES & CREDITS :

   NOAA